sensor_id;sensor_type;location;lat;lon;timestamp;pressure;altitude;pressure_sealevel;temperature;humidity
38558;BME280;24333;42.626;23.308;2023-07-20T00:02:14;68682.88;;;-148.95;61.35
38558;BME280;24333;42.626;23.308;2023-07-20T00:04:40;68668.34;;;-148.95;62.80
38558;BME280;24333;42.626;23.308;2023-07-20T00:07:05;68668.34;;;-148.95;62.30
38558;BME280;24333;42.626;23.308;2023-07-20T00:09:31;68655.91;;;-148.95;65.33
38558;BME280;24333;42.626;23.308;2023-07-20T00:11:56;68660.06;;;-148.95;63.18
38558;BME280;24333;42.626;23.308;2023-07-20T00:14:22;68653.84;;;-148.95;59.71
38558;BME280;24333;42.626;23.308;2023-07-20T00:16:50;68645.53;;;-148.95;59.71
38558;BME280;24333;42.626;23.308;2023-07-20T00:19:20;68641.41;;;-148.95;62.79
38558;BME280;24333;42.626;23.308;2023-07-20T00:21:46;68635.19;;;-148.95;62.78
38558;BME280;24333;42.626;23.308;2023-07-20T00:24:11;68641.41;;;-148.95;62.27
38558;BME280;24333;42.626;23.308;2023-07-20T00:26:37;68653.84;;;-148.95;63.74
38558;BME280;24333;42.626;23.308;2023-07-20T00:29:05;68664.22;;;-148.95;66.26
38558;BME280;24333;42.626;23.308;2023-07-20T00:31:30;68672.50;;;-148.95;64.74
38558;BME280;24333;42.626;23.308;2023-07-20T00:33:56;68682.88;;;-148.95;65.34
38558;BME280;24333;42.626;23.308;2023-07-20T00:36:21;68682.88;;;-148.95;66.00
38558;BME280;24333;42.626;23.308;2023-07-20T00:38:47;68680.78;;;-148.95;63.71
38558;BME280;24333;42.626;23.308;2023-07-20T00:41:12;68687.03;;;-148.95;63.87
38558;BME280;24333;42.626;23.308;2023-07-20T00:43:38;68678.72;;;-148.95;63.88
38558;BME280;24333;42.626;23.308;2023-07-20T00:46:04;68678.72;;;-148.95;63.71
38558;BME280;24333;42.626;23.308;2023-07-20T00:48:31;68668.34;;;-148.95;63.57
38558;BME280;24333;42.626;23.308;2023-07-20T00:53:26;68662.13;;;-148.95;65.35
38558;BME280;24333;42.626;23.308;2023-07-20T00:55:52;68662.13;;;-148.95;67.07
38558;BME280;24333;42.626;23.308;2023-07-20T00:58:17;68672.50;;;-148.95;68.20
38558;BME280;24333;42.626;23.308;2023-07-20T01:00:44;68682.88;;;-148.95;68.23
38558;BME280;24333;42.626;23.308;2023-07-20T01:03:09;68697.38;;;-148.95;67.85
38558;BME280;24333;42.626;23.308;2023-07-20T01:05:59;68707.75;;;-148.95;67.20
38558;BME280;24333;42.626;23.308;2023-07-20T01:11:16;68713.97;;;-148.95;67.17
38558;BME280;24333;42.626;23.308;2023-07-20T01:13:47;68718.13;;;-148.95;67.01
38558;BME280;24333;42.626;23.308;2023-07-20T01:16:12;68730.56;;;-148.95;67.63
38558;BME280;24333;42.626;23.308;2023-07-20T01:18:37;68732.63;;;-148.95;69.78
38558;BME280;24333;42.626;23.308;2023-07-20T01:21:09;68753.38;;;-148.95;70.18
38558;BME280;24333;42.626;23.308;2023-07-20T01:24:11;68767.91;;;-148.95;71.20
38558;BME280;24333;42.626;23.308;2023-07-20T01:29:55;68772.03;;;-148.95;70.69
38558;BME280;24333;42.626;23.308;2023-07-20T01:32:30;68774.13;;;-148.95;69.20
38558;BME280;24333;42.626;23.308;2023-07-20T01:40:07;68778.25;;;-148.95;71.32
38558;BME280;24333;42.626;23.308;2023-07-20T01:42:34;68792.78;;;-148.95;73.14
38558;BME280;24333;42.626;23.308;2023-07-20T01:44:59;68801.06;;;-148.95;72.53
38558;BME280;24333;42.626;23.308;2023-07-20T01:47:25;68807.28;;;-148.95;73.12
38558;BME280;24333;42.626;23.308;2023-07-20T01:49:50;68803.16;;;-148.95;73.16
38558;BME280;24333;42.626;23.308;2023-07-20T01:52:15;68809.38;;;-148.95;74.11
38558;BME280;24333;42.626;23.308;2023-07-20T01:54:41;68807.28;;;-148.95;73.53
38558;BME280;24333;42.626;23.308;2023-07-20T01:57:06;68811.44;;;-148.95;71.96
38558;BME280;24333;42.626;23.308;2023-07-20T01:59:31;68807.28;;;-148.95;72.33
38558;BME280;24333;42.626;23.308;2023-07-20T02:01:57;68805.22;;;-148.95;73.79
38558;BME280;24333;42.626;23.308;2023-07-20T02:04:22;68807.28;;;-148.95;75.90
38558;BME280;24333;42.626;23.308;2023-07-20T02:06:48;68807.28;;;-148.95;76.33
38558;BME280;24333;42.626;23.308;2023-07-20T02:09:13;68811.44;;;-148.95;76.07
38558;BME280;24333;42.626;23.308;2023-07-20T02:11:38;68819.75;;;-148.95;76.36
38558;BME280;24333;42.626;23.308;2023-07-20T02:14:04;68828.03;;;-148.95;76.85
38558;BME280;24333;42.626;23.308;2023-07-20T02:16:29;68844.63;;;-148.95;78.35
38558;BME280;24333;42.626;23.308;2023-07-20T02:18:55;68850.84;;;-148.95;77.61
38558;BME280;24333;42.626;23.308;2023-07-20T02:21:22;68848.78;;;-148.95;77.69
38558;BME280;24333;42.626;23.308;2023-07-20T02:23:47;68848.78;;;-148.95;75.27
38558;BME280;24333;42.626;23.308;2023-07-20T02:26:13;68855.00;;;-148.95;75.50
38558;BME280;24333;42.626;23.308;2023-07-20T02:28:38;68848.78;;;-148.95;76.23
38558;BME280;24333;42.626;23.308;2023-07-20T02:31:03;68855.00;;;-148.95;77.89
38558;BME280;24333;42.626;23.308;2023-07-20T02:33:29;68857.06;;;-148.95;78.15
38558;BME280;24333;42.626;23.308;2023-07-20T02:35:54;68859.16;;;-148.95;78.00
38558;BME280;24333;42.626;23.308;2023-07-20T02:38:20;68861.22;;;-148.95;77.36
38558;BME280;24333;42.626;23.308;2023-07-20T02:40:45;68861.22;;;-148.95;77.34
38558;BME280;24333;42.626;23.308;2023-07-20T02:43:11;68855.00;;;-148.95;79.10
38558;BME280;24333;42.626;23.308;2023-07-20T02:45:40;68857.06;;;-148.95;77.33
38558;BME280;24333;42.626;23.308;2023-07-20T02:48:06;68855.00;;;-148.95;76.85
38558;BME280;24333;42.626;23.308;2023-07-20T02:50:57;68855.00;;;-148.95;73.74
38558;BME280;24333;42.626;23.308;2023-07-20T02:53:22;68848.78;;;-148.95;71.21
38558;BME280;24333;42.626;23.308;2023-07-20T02:55:47;68846.69;;;-148.95;71.09
38558;BME280;24333;42.626;23.308;2023-07-20T02:58:13;68848.78;;;-148.95;70.05
38558;BME280;24333;42.626;23.308;2023-07-20T03:00:44;68846.69;;;-148.95;69.21
38558;BME280;24333;42.626;23.308;2023-07-20T03:03:10;68848.78;;;-148.95;71.02
38558;BME280;24333;42.626;23.308;2023-07-20T03:05:54;68865.38;;;-148.95;72.17
38558;BME280;24333;42.626;23.308;2023-07-20T03:08:21;68861.22;;;-148.95;74.77
38558;BME280;24333;42.626;23.308;2023-07-20T03:10:47;68871.59;;;-148.95;74.16
38558;BME280;24333;42.626;23.308;2023-07-20T03:13:12;68877.81;;;-148.95;72.60
38558;BME280;24333;42.626;23.308;2023-07-20T03:19:05;68881.97;;;-148.95;72.13
38558;BME280;24333;42.626;23.308;2023-07-20T03:21:30;68886.09;;;-148.95;74.70
38558;BME280;24333;42.626;23.308;2023-07-20T03:23:56;68886.09;;;-148.95;74.08
38558;BME280;24333;42.626;23.308;2023-07-20T03:26:21;68894.41;;;-148.95;74.80
38558;BME280;24333;42.626;23.308;2023-07-20T03:28:47;68892.31;;;-148.95;74.05
38558;BME280;24333;42.626;23.308;2023-07-20T03:31:12;68892.31;;;-148.95;74.40
38558;BME280;24333;42.626;23.308;2023-07-20T03:33:38;68888.19;;;-148.95;75.04
38558;BME280;24333;42.626;23.308;2023-07-20T03:36:03;68881.97;;;-148.95;74.46
38558;BME280;24333;42.626;23.308;2023-07-20T03:38:29;68881.97;;;-148.95;73.30
38558;BME280;24333;42.626;23.308;2023-07-20T03:40:56;68875.72;;;-148.95;74.88
38558;BME280;24333;42.626;23.308;2023-07-20T03:43:23;68869.50;;;-148.95;77.22
38558;BME280;24333;42.626;23.308;2023-07-20T03:45:49;68869.50;;;-148.95;76.96
38558;BME280;24333;42.626;23.308;2023-07-20T03:48:36;68869.50;;;-148.95;76.92
38558;BME280;24333;42.626;23.308;2023-07-20T03:51:02;68867.44;;;-148.95;78.06
38558;BME280;24333;42.626;23.308;2023-07-20T03:53:27;68857.06;;;-148.95;79.52
38558;BME280;24333;42.626;23.308;2023-07-20T03:55:53;68867.44;;;-148.95;80.12
38558;BME280;24333;42.626;23.308;2023-07-20T03:58:19;68855.00;;;-148.95;80.57
38558;BME280;24333;42.626;23.308;2023-07-20T04:00:46;68848.78;;;-148.95;81.76
38558;BME280;24333;42.626;23.308;2023-07-20T04:03:12;68848.78;;;-148.95;81.53
38558;BME280;24333;42.626;23.308;2023-07-20T04:05:38;68838.41;;;-148.95;81.31
38558;BME280;24333;42.626;23.308;2023-07-20T04:08:04;68823.88;;;-148.95;78.85
38558;BME280;24333;42.626;23.308;2023-07-20T04:10:29;68807.28;;;-148.95;78.31
38558;BME280;24333;42.626;23.308;2023-07-20T04:12:55;68792.78;;;-148.95;78.16
38558;BME280;24333;42.626;23.308;2023-07-20T04:15:20;68778.25;;;-148.95;77.15
38558;BME280;24333;42.626;23.308;2023-07-20T04:17:46;68767.91;;;-148.95;76.69
38558;BME280;24333;42.626;23.308;2023-07-20T04:20:33;68753.38;;;-148.95;76.64
38558;BME280;24333;42.626;23.308;2023-07-20T04:23:01;68732.63;;;-148.95;77.12
38558;BME280;24333;42.626;23.308;2023-07-20T04:25:27;68732.63;;;-148.95;77.65
38558;BME280;24333;42.626;23.308;2023-07-20T04:27:52;68720.19;;;-148.95;78.68
38558;BME280;24333;42.626;23.308;2023-07-20T05:43:14;68562.59;;;-148.95;70.22
38558;BME280;24333;42.626;23.308;2023-07-20T05:45:43;68566.75;;;-148.95;68.94
38558;BME280;24333;42.626;23.308;2023-07-20T05:48:09;68558.44;;;-148.95;70.15
38558;BME280;24333;42.626;23.308;2023-07-20T05:50:37;68556.38;;;-148.95;68.12
38558;BME280;24333;42.626;23.308;2023-07-20T05:53:03;68558.44;;;-148.95;70.92
38558;BME280;24333;42.626;23.308;2023-07-20T05:55:28;68550.16;;;-148.95;68.75
38558;BME280;24333;42.626;23.308;2023-07-20T05:57:53;68539.78;;;-148.95;69.12
38558;BME280;24333;42.626;23.308;2023-07-20T06:00:21;68539.78;;;-148.95;66.98
38558;BME280;24333;42.626;23.308;2023-07-20T06:02:52;68541.84;;;-148.95;67.42
38558;BME280;24333;42.626;23.308;2023-07-20T06:05:18;68525.28;;;-148.95;67.24
38558;BME280;24333;42.626;23.308;2023-07-20T06:07:44;68527.34;;;-148.95;67.04
38558;BME280;24333;42.626;23.308;2023-07-20T06:10:09;68529.41;;;-148.95;65.47
38558;BME280;24333;42.626;23.308;2023-07-20T06:12:35;68516.97;;;-148.95;64.61
38558;BME280;24333;42.626;23.308;2023-07-20T06:15:31;68492.09;;;-148.95;63.90
38558;BME280;24333;42.626;23.308;2023-07-20T06:17:57;68479.66;;;-148.95;62.83
38558;BME280;24333;42.626;23.308;2023-07-20T06:20:23;68456.84;;;-148.95;62.85
38558;BME280;24333;42.626;23.308;2023-07-20T06:22:49;68456.84;;;-148.95;62.33
38558;BME280;24333;42.626;23.308;2023-07-20T06:25:14;68431.97;;;-148.95;61.50
38558;BME280;24333;42.626;23.308;2023-07-20T06:27:40;68429.88;;;-148.95;57.30
38558;BME280;24333;42.626;23.308;2023-07-20T06:30:06;68413.31;;;-148.95;58.33
38558;BME280;24333;42.626;23.308;2023-07-20T06:32:31;68413.31;;;-148.95;59.67
38558;BME280;24333;42.626;23.308;2023-07-20T06:34:57;68421.59;;;-148.95;57.62
38558;BME280;24333;42.626;23.308;2023-07-20T07:08:50;68293.03;;;-148.95;54.70
38558;BME280;24333;42.626;23.308;2023-07-20T07:14:04;68326.22;;;-148.95;55.18
38558;BME280;24333;42.626;23.308;2023-07-20T07:32:01;68357.31;;;-148.95;56.33
38558;BME280;24333;42.626;23.308;2023-07-20T07:34:37;68336.56;;;-148.95;54.85
38558;BME280;24333;42.626;23.308;2023-07-20T07:37:06;68344.88;;;-148.95;56.36
38558;BME280;24333;42.626;23.308;2023-07-20T07:39:31;68342.78;;;-148.95;54.56
38558;BME280;24333;42.626;23.308;2023-07-20T07:44:32;68322.06;;;-148.95;55.71
38558;BME280;24333;42.626;23.308;2023-07-20T07:46:58;68317.91;;;-148.95;57.36
38558;BME280;24333;42.626;23.308;2023-07-20T07:54:41;68284.75;;;-148.95;56.42
38558;BME280;24333;42.626;23.308;2023-07-20T08:13:08;68270.22;;;-148.95;57.61
38558;BME280;24333;42.626;23.308;2023-07-20T08:15:34;68274.38;;;-148.95;59.00
38558;BME280;24333;42.626;23.308;2023-07-20T08:17:59;68280.59;;;-148.95;58.92
38558;BME280;24333;42.626;23.308;2023-07-20T08:20:24;68284.75;;;-148.95;59.73
38558;BME280;24333;42.626;23.308;2023-07-20T08:22:55;68288.88;;;-148.95;59.77
38558;BME280;24333;42.626;23.308;2023-07-20T08:25:21;68322.06;;;-148.95;61.57
38558;BME280;24333;42.626;23.308;2023-07-20T08:27:46;68317.91;;;-148.95;62.86
38558;BME280;24333;42.626;23.308;2023-07-20T08:30:13;68334.50;;;-148.95;62.28
38558;BME280;24333;42.626;23.308;2023-07-20T08:32:38;68336.56;;;-148.95;61.91
38558;BME280;24333;42.626;23.308;2023-07-20T08:35:04;68359.38;;;-148.95;59.68
38558;BME280;24333;42.626;23.308;2023-07-20T08:37:29;68365.59;;;-148.95;59.82
38558;BME280;24333;42.626;23.308;2023-07-20T08:39:55;68375.97;;;-148.95;57.51
38558;BME280;24333;42.626;23.308;2023-07-20T08:42:20;68363.53;;;-148.95;56.36
38558;BME280;24333;42.626;23.308;2023-07-20T08:44:49;68351.09;;;-148.95;55.72
38558;BME280;24333;42.626;23.308;2023-07-20T08:47:16;68363.53;;;-148.95;55.61
38558;BME280;24333;42.626;23.308;2023-07-20T08:49:41;68357.31;;;-148.95;56.04
38558;BME280;24333;42.626;23.308;2023-07-20T08:52:07;68355.25;;;-148.95;54.75
38558;BME280;24333;42.626;23.308;2023-07-20T08:54:35;68344.88;;;-148.95;56.15
38558;BME280;24333;42.626;23.308;2023-07-20T08:57:05;68346.94;;;-148.95;55.97
38558;BME280;24333;42.626;23.308;2023-07-20T08:59:34;68322.06;;;-148.95;54.85
38558;BME280;24333;42.626;23.308;2023-07-20T09:02:02;68303.41;;;-148.95;53.62
38558;BME280;24333;42.626;23.308;2023-07-20T09:04:27;68305.47;;;-148.95;53.73
38558;BME280;24333;42.626;23.308;2023-07-20T09:06:53;68284.75;;;-148.95;52.77
38558;BME280;24333;42.626;23.308;2023-07-20T09:09:21;68282.66;;;-148.95;51.41
38558;BME280;24333;42.626;23.308;2023-07-20T09:12:20;68272.31;;;-148.95;51.75
38558;BME280;24333;42.626;23.308;2023-07-20T09:14:57;68284.75;;;-148.95;48.58
38558;BME280;24333;42.626;23.308;2023-07-20T09:17:25;68276.44;;;-148.95;48.18
38558;BME280;24333;42.626;23.308;2023-07-20T09:19:51;68253.63;;;-148.95;48.75
38558;BME280;24333;42.626;23.308;2023-07-20T09:22:32;68243.28;;;-148.95;47.63
38558;BME280;24333;42.626;23.308;2023-07-20T09:40:59;68112.66;;;-148.95;45.39
38558;BME280;24333;42.626;23.308;2023-07-20T09:43:28;68102.28;;;-148.95;45.01
38558;BME280;24333;42.626;23.308;2023-07-20T09:45:58;68094.00;;;-148.95;44.34
38558;BME280;24333;42.626;23.308;2023-07-20T09:48:24;68094.00;;;-148.95;43.53
38558;BME280;24333;42.626;23.308;2023-07-20T09:50:50;68054.59;;;-148.95;43.77
38558;BME280;24333;42.626;23.308;2023-07-20T09:53:17;68002.75;;;-148.95;41.92
38558;BME280;24333;42.626;23.308;2023-07-20T09:58:18;67977.88;;;-148.95;40.17
38558;BME280;24333;42.626;23.308;2023-07-20T10:00:45;67957.16;;;-148.95;40.12
38558;BME280;24333;42.626;23.308;2023-07-20T10:03:14;67955.06;;;-148.95;40.10
38558;BME280;24333;42.626;23.308;2023-07-20T10:05:43;67998.63;;;-148.95;40.63
38558;BME280;24333;42.626;23.308;2023-07-20T10:08:12;68027.63;;;-148.95;41.64
38558;BME280;24333;42.626;23.308;2023-07-20T10:10:41;68042.16;;;-148.95;42.14
38558;BME280;24333;42.626;23.308;2023-07-20T10:13:07;68035.94;;;-148.95;42.53
38558;BME280;24333;42.626;23.308;2023-07-20T10:15:46;68062.88;;;-148.95;41.89
38558;BME280;24333;42.626;23.308;2023-07-20T10:20:41;68069.09;;;-148.95;40.84
38558;BME280;24333;42.626;23.308;2023-07-20T10:23:07;68058.75;;;-148.95;41.15
38558;BME280;24333;42.626;23.308;2023-07-20T10:25:33;68069.09;;;-148.95;41.00
38558;BME280;24333;42.626;23.308;2023-07-20T10:28:04;68040.06;;;-148.95;40.54
38558;BME280;24333;42.626;23.308;2023-07-20T10:30:31;68044.22;;;-148.95;40.74
38558;BME280;24333;42.626;23.308;2023-07-20T10:32:57;68035.94;;;-148.95;41.08
38558;BME280;24333;42.626;23.308;2023-07-20T10:35:22;67988.25;;;-148.95;40.37
38558;BME280;24333;42.626;23.308;2023-07-20T10:37:53;67913.59;;;-148.95;39.76
38558;BME280;24333;42.626;23.308;2023-07-20T10:40:32;67882.50;;;-148.95;40.04
38558;BME280;24333;42.626;23.308;2023-07-20T10:42:59;67880.44;;;-148.95;40.32
38558;BME280;24333;42.626;23.308;2023-07-20T10:45:53;67855.56;;;-148.95;40.50
38558;BME280;24333;42.626;23.308;2023-07-20T10:48:23;67836.91;;;-148.95;39.75
38558;BME280;24333;42.626;23.308;2023-07-20T10:51:21;67799.59;;;-148.95;40.27
38558;BME280;24333;42.626;23.308;2023-07-20T10:53:49;67768.47;;;-148.95;39.59
38558;BME280;24333;42.626;23.308;2023-07-20T10:56:20;67758.13;;;-148.95;40.83
38558;BME280;24333;42.626;23.308;2023-07-20T10:58:45;67749.81;;;-148.95;37.52
38558;BME280;24333;42.626;23.308;2023-07-20T11:01:16;67729.09;;;-148.95;38.01
38558;BME280;24333;42.626;23.308;2023-07-20T11:03:42;67695.91;;;-148.95;38.11
38558;BME280;24333;42.626;23.308;2023-07-20T11:11:32;67625.44;;;-148.95;36.77
38558;BME280;24333;42.626;23.308;2023-07-20T11:14:06;67515.56;;;-148.95;35.28
38558;BME280;24333;42.626;23.308;2023-07-20T11:19:05;67302.06;;;-148.95;33.94
38558;BME280;24333;42.626;23.308;2023-07-20T11:21:38;67185.97;;;-148.95;32.47
38558;BME280;24333;42.626;23.308;2023-07-20T11:24:06;67111.34;;;-148.95;30.93
38558;BME280;24333;42.626;23.308;2023-07-20T11:31:56;66928.97;;;-148.95;29.12
38558;BME280;24333;42.626;23.308;2023-07-20T11:34:21;67049.16;;;-148.95;30.20
38558;BME280;24333;42.626;23.308;2023-07-20T11:36:48;67130.00;;;-148.95;30.59
38558;BME280;24333;42.626;23.308;2023-07-20T11:39:16;67324.84;;;-148.95;32.36
38558;BME280;24333;42.626;23.308;2023-07-20T11:41:49;67436.78;;;-148.95;32.44
38558;BME280;24333;42.626;23.308;2023-07-20T11:44:16;67509.34;;;-148.95;33.06
38558;BME280;24333;42.626;23.308;2023-07-20T11:46:42;67509.34;;;-148.95;33.09
38558;BME280;24333;42.626;23.308;2023-07-20T11:49:09;67511.41;;;-148.95;33.10
38558;BME280;24333;42.626;23.308;2023-07-20T11:51:35;67550.81;;;-148.95;33.18
38558;BME280;24333;42.626;23.308;2023-07-20T11:54:04;67598.50;;;-148.95;33.94
38558;BME280;24333;42.626;23.308;2023-07-20T11:56:30;67627.50;;;-148.95;32.77
38558;BME280;24333;42.626;23.308;2023-07-20T11:58:57;67627.50;;;-148.95;34.16
38558;BME280;24333;42.626;23.308;2023-07-20T12:01:25;67642.03;;;-148.95;33.77
38558;BME280;24333;42.626;23.308;2023-07-20T12:03:55;67648.25;;;-148.95;33.73
38558;BME280;24333;42.626;23.308;2023-07-20T12:06:23;67658.59;;;-148.95;34.71
38558;BME280;24333;42.626;23.308;2023-07-20T12:08:50;67673.13;;;-148.95;33.85
38558;BME280;24333;42.626;23.308;2023-07-20T12:11:34;67679.34;;;-148.95;33.17
38558;BME280;24333;42.626;23.308;2023-07-20T12:14:00;67693.84;;;-148.95;33.43
38558;BME280;24333;42.626;23.308;2023-07-20T12:16:29;67691.78;;;-148.95;33.97
38558;BME280;24333;42.626;23.308;2023-07-20T12:19:02;67691.78;;;-148.95;34.17
38558;BME280;24333;42.626;23.308;2023-07-20T12:21:30;67702.16;;;-148.95;34.09
38558;BME280;24333;42.626;23.308;2023-07-20T12:23:57;67693.84;;;-148.95;33.70
38558;BME280;24333;42.626;23.308;2023-07-20T12:26:23;67710.44;;;-148.95;33.03
38558;BME280;24333;42.626;23.308;2023-07-20T12:28:49;67708.38;;;-148.95;33.13
38558;BME280;24333;42.626;23.308;2023-07-20T12:31:15;67720.81;;;-148.95;33.55
38558;BME280;24333;42.626;23.308;2023-07-20T12:33:41;67716.66;;;-148.95;33.11
38558;BME280;24333;42.626;23.308;2023-07-20T12:36:08;67708.38;;;-148.95;32.60
38558;BME280;24333;42.626;23.308;2023-07-20T12:38:33;67712.50;;;-148.95;32.74
38558;BME280;24333;42.626;23.308;2023-07-20T12:41:00;67724.94;;;-148.95;32.35
38558;BME280;24333;42.626;23.308;2023-07-20T12:43:26;67708.38;;;-148.95;33.59
38558;BME280;24333;42.626;23.308;2023-07-20T12:45:52;67708.38;;;-148.95;32.66
38558;BME280;24333;42.626;23.308;2023-07-20T12:48:17;67700.06;;;-148.95;33.79
38558;BME280;24333;42.626;23.308;2023-07-20T12:50:43;67695.91;;;-148.95;34.45
38558;BME280;24333;42.626;23.308;2023-07-20T12:53:08;67695.91;;;-148.95;32.76
38558;BME280;24333;42.626;23.308;2023-07-20T12:55:34;67700.06;;;-148.95;32.88
38558;BME280;24333;42.626;23.308;2023-07-20T12:57:59;67689.69;;;-148.95;33.23
38558;BME280;24333;42.626;23.308;2023-07-20T13:00:25;67675.19;;;-148.95;32.32
38558;BME280;24333;42.626;23.308;2023-07-20T13:15:46;67666.91;;;-148.95;31.47
38558;BME280;24333;42.626;23.308;2023-07-20T13:18:13;67673.13;;;-148.95;31.68
38558;BME280;24333;42.626;23.308;2023-07-20T13:20:38;67662.75;;;-148.95;31.90
38558;BME280;24333;42.626;23.308;2023-07-20T13:25:39;67664.81;;;-148.95;31.81
38558;BME280;24333;42.626;23.308;2023-07-20T13:28:07;67662.75;;;-148.95;32.21
38558;BME280;24333;42.626;23.308;2023-07-20T15:06:19;67816.16;;;-148.95;36.35
38558;BME280;24333;42.626;23.308;2023-07-20T16:00:29;67905.31;;;-148.95;39.61
38558;BME280;24333;42.626;23.308;2023-07-20T16:13:15;67923.97;;;-148.95;39.77
38558;BME280;24333;42.626;23.308;2023-07-20T16:15:41;67940.56;;;-148.95;40.38
38558;BME280;24333;42.626;23.308;2023-07-20T16:18:08;67965.44;;;-148.95;40.95
38558;BME280;24333;42.626;23.308;2023-07-20T16:43:50;68027.63;;;-148.95;41.83
38558;BME280;24333;42.626;23.308;2023-07-20T16:46:18;68035.94;;;-148.95;41.44
38558;BME280;24333;42.626;23.308;2023-07-20T16:48:44;68042.16;;;-148.95;41.68
38558;BME280;24333;42.626;23.308;2023-07-20T18:40:12;68442.31;;;-148.95;53.64
38558;BME280;24333;42.626;23.308;2023-07-20T19:44:41;68612.38;;;-148.95;58.10
38558;BME280;24333;42.626;23.308;2023-07-20T19:52:45;68635.19;;;-148.95;58.85
38558;BME280;24333;42.626;23.308;2023-07-20T19:55:11;68635.19;;;-148.95;59.81
38558;BME280;24333;42.626;23.308;2023-07-20T19:57:37;68637.25;;;-148.95;59.39
38558;BME280;24333;42.626;23.308;2023-07-20T20:15:33;68662.13;;;-148.95;60.36
38558;BME280;24333;42.626;23.308;2023-07-20T20:17:59;68664.22;;;-148.95;60.71
38558;BME280;24333;42.626;23.308;2023-07-20T20:20:34;68666.28;;;-148.95;60.71
38558;BME280;24333;42.626;23.308;2023-07-20T20:23:00;68668.34;;;-148.95;61.22
38558;BME280;24333;42.626;23.308;2023-07-20T20:25:26;68672.50;;;-148.95;61.67
38558;BME280;24333;42.626;23.308;2023-07-20T20:27:51;68668.34;;;-148.95;62.42
38558;BME280;24333;42.626;23.308;2023-07-20T20:46:02;68709.84;;;-148.95;64.04
38558;BME280;24333;42.626;23.308;2023-07-20T20:48:29;68711.91;;;-148.95;63.65
38558;BME280;24333;42.626;23.308;2023-07-20T20:50:55;68711.91;;;-148.95;63.36
38558;BME280;24333;42.626;23.308;2023-07-20T20:53:20;68720.19;;;-148.95;62.46
38558;BME280;24333;42.626;23.308;2023-07-20T20:55:46;68718.13;;;-148.95;61.15
38558;BME280;24333;42.626;23.308;2023-07-20T20:58:11;68709.84;;;-148.95;60.36
38558;BME280;24333;42.626;23.308;2023-07-20T21:00:36;68705.69;;;-148.95;60.92
38558;BME280;24333;42.626;23.308;2023-07-20T21:03:02;68697.38;;;-148.95;60.14
38558;BME280;24333;42.626;23.308;2023-07-20T21:05:27;68691.16;;;-148.95;60.00
38558;BME280;24333;42.626;23.308;2023-07-20T21:07:53;68687.03;;;-148.95;60.39
38558;BME280;24333;42.626;23.308;2023-07-20T21:10:19;68682.88;;;-148.95;60.00
38558;BME280;24333;42.626;23.308;2023-07-20T21:12:45;68684.94;;;-148.95;60.61
38558;BME280;24333;42.626;23.308;2023-07-20T21:15:10;68682.88;;;-148.95;60.40
38558;BME280;24333;42.626;23.308;2023-07-20T21:17:36;68687.03;;;-148.95;60.69
38558;BME280;24333;42.626;23.308;2023-07-20T21:20:03;68689.09;;;-148.95;60.73
38558;BME280;24333;42.626;23.308;2023-07-20T21:22:28;68691.16;;;-148.95;60.65
38558;BME280;24333;42.626;23.308;2023-07-20T21:24:54;68691.16;;;-148.95;60.59
38558;BME280;24333;42.626;23.308;2023-07-20T21:27:19;68687.03;;;-148.95;60.65
38558;BME280;24333;42.626;23.308;2023-07-20T21:29:45;68678.72;;;-148.95;59.96
38558;BME280;24333;42.626;23.308;2023-07-20T21:32:11;68687.03;;;-148.95;60.19
38558;BME280;24333;42.626;23.308;2023-07-20T21:34:37;68682.88;;;-148.95;60.21
38558;BME280;24333;42.626;23.308;2023-07-20T21:37:03;68678.72;;;-148.95;60.72
38558;BME280;24333;42.626;23.308;2023-07-20T21:39:29;68680.78;;;-148.95;60.81
38558;BME280;24333;42.626;23.308;2023-07-20T21:41:54;68687.03;;;-148.95;61.09
38558;BME280;24333;42.626;23.308;2023-07-20T21:44:19;68691.16;;;-148.95;61.42
38558;BME280;24333;42.626;23.308;2023-07-20T21:46:45;68699.47;;;-148.95;61.91
38558;BME280;24333;42.626;23.308;2023-07-20T21:49:10;68701.53;;;-148.95;61.79
38558;BME280;24333;42.626;23.308;2023-07-20T21:51:36;68697.38;;;-148.95;61.36
38558;BME280;24333;42.626;23.308;2023-07-20T21:54:02;68693.25;;;-148.95;60.76
38558;BME280;24333;42.626;23.308;2023-07-20T21:56:27;68697.38;;;-148.95;60.84
38558;BME280;24333;42.626;23.308;2023-07-20T21:58:52;68687.03;;;-148.95;59.89
38558;BME280;24333;42.626;23.308;2023-07-20T22:01:18;68680.78;;;-148.95;59.75
38558;BME280;24333;42.626;23.308;2023-07-20T22:03:43;68672.50;;;-148.95;58.68
38558;BME280;24333;42.626;23.308;2023-07-20T22:06:09;68668.34;;;-148.95;58.58
38558;BME280;24333;42.626;23.308;2023-07-20T22:08:35;68668.34;;;-148.95;58.26
38558;BME280;24333;42.626;23.308;2023-07-20T22:11:07;68674.56;;;-148.95;58.63
38558;BME280;24333;42.626;23.308;2023-07-20T22:13:33;68684.94;;;-148.95;58.57
38558;BME280;24333;42.626;23.308;2023-07-20T22:15:59;68684.94;;;-148.95;58.32
38558;BME280;24333;42.626;23.308;2023-07-20T22:18:25;68687.03;;;-148.95;59.16
38558;BME280;24333;42.626;23.308;2023-07-20T22:20:51;68687.03;;;-148.95;58.80
38558;BME280;24333;42.626;23.308;2023-07-20T22:23:17;68680.78;;;-148.95;58.20
38558;BME280;24333;42.626;23.308;2023-07-20T22:25:42;68687.03;;;-148.95;57.81
38558;BME280;24333;42.626;23.308;2023-07-20T22:28:07;68684.94;;;-148.95;57.05
38558;BME280;24333;42.626;23.308;2023-07-20T22:30:33;68670.44;;;-148.95;56.46
38558;BME280;24333;42.626;23.308;2023-07-20T22:32:59;68668.34;;;-148.95;56.32
38558;BME280;24333;42.626;23.308;2023-07-20T22:35:24;68662.13;;;-148.95;55.12